Terminal Aerodrome Forecast
Issued by NWS

Home | Current Version | Previous Version | Text Only | Print | Product List | Glossary On
Versions: 1 2 3 4 5 6 7 8 9 10 11 12 13 14 15 16 17 18 19 20 21 22 23 24 25
668
FTUS43 KLSX 060538
TAFSUS
TAF
KSUS 060538Z 0606/0706 VRB03KT P6SM VCSH OVC015
     FM061000 VRB03KT 4SM BR OVC008
     FM061400 31007KT P6SM OVC008
     FM061700 31011G18KT P6SM OVC015
     FM062000 30012G18KT P6SM SCT110
     FM070000 30007KT P6SM SCT200=

USA.gov is the U.S. government's official web portal to all federal, state and local government web resources and services.